Time;durP1;ratioP1;P1;durP2;ratioP2;P2;SDS_P1;SDS_P2;PMS_P1;PMS_P2;Temp;Humidity;BMP_temperature;BMP_pressure;BME280_temperature;BME280_humidity;BME280_pressure;Samples;Min_cycle;Max_cycle;Signal;HPM_P1;HPM_P2
2021/06/27 00:00:37;;;;;;;3.95;3.38;;;22.00;97.80;;;;;;5052352;28;20037;-90
2021/06/27 00:03:03;;;;;;;3.90;3.38;;;22.00;97.80;;;;;;5052357;28;20033;-90
2021/06/27 00:05:30;;;;;;;3.42;2.95;;;22.00;97.70;;;;;;5052436;28;20052;-90
2021/06/27 00:07:56;;;;;;;5.63;3.10;;;22.00;97.50;;;;;;5053623;28;20570;-90
2021/06/27 00:10:26;;;;;;;3.65;2.88;;;22.00;97.40;;;;;;5052228;28;20474;-90
2021/06/27 00:12:52;;;;;;;3.90;3.00;;;22.00;97.30;;;;;;5036452;28;20136;-90
2021/06/27 00:15:24;;;;;;;5.32;2.83;;;22.00;97.00;;;;;;5052278;28;20379;-90
2021/06/27 00:17:51;;;;;;;2.90;2.70;;;22.10;96.80;;;;;;5051930;28;20041;-90
2021/06/27 00:20:22;;;;;;;4.25;2.80;;;22.10;96.60;;;;;;5052290;28;20030;-89
2021/06/27 00:22:49;;;;;;;4.03;2.97;;;22.10;96.40;;;;;;5035846;28;20168;-89
2021/06/27 00:25:16;;;;;;;3.15;2.85;;;22.10;96.00;;;;;;5052737;28;20056;-89
2021/06/27 00:27:48;;;;;;;3.25;2.63;;;22.20;95.80;;;;;;5052930;28;20418;-90
2021/06/27 00:30:16;;;;;;;3.10;2.70;;;22.20;95.60;;;;;;5052488;28;20040;-89
2021/06/27 00:32:42;;;;;;;2.90;2.70;;;22.10;95.60;;;;;;5036332;28;20067;-90
2021/06/27 00:35:11;;;;;;;3.50;2.42;;;22.10;95.50;;;;;;5051287;28;20037;-90
2021/06/27 00:37:37;;;;;;;3.13;2.83;;;22.10;95.40;;;;;;5034791;28;20466;-90
2021/06/27 00:40:11;;;;;;;2.88;2.63;;;22.10;95.20;;;;;;5051698;28;20037;-89
2021/06/27 00:42:37;;;;;;;4.43;3.00;;;22.20;95.00;;;;;;5034998;28;20038;-90
2021/06/27 00:45:06;;;;;;;3.75;2.75;;;22.10;94.90;;;;;;5051434;28;20033;-90
2021/06/27 00:47:34;;;;;;;3.08;2.75;;;22.10;95.00;;;;;;5051863;28;20050;-89
2021/06/27 00:50:00;;;;;;;5.00;2.67;;;22.10;94.80;;;;;;5035728;28;20103;-89
2021/06/27 00:52:26;;;;;;;3.72;2.67;;;22.10;94.70;;;;;;5051854;28;20052;-90
2021/06/27 00:54:52;;;;;;;5.00;2.83;;;22.10;94.60;;;;;;5036128;28;20112;-89
2021/06/27 00:57:19;;;;;;;3.10;2.60;;;22.20;94.50;;;;;;5052151;28;20040;-89
2021/06/27 00:59:45;;;;;;;3.20;2.90;;;22.20;94.30;;;;;;5051210;28;20048;-90
2021/06/27 01:02:11;;;;;;;3.97;2.58;;;22.20;94.40;;;;;;5051412;28;20034;-89
2021/06/27 01:04:37;;;;;;;3.80;2.80;;;22.10;94.40;;;;;;5052124;28;20033;-89
2021/06/27 01:07:04;;;;;;;2.90;2.53;;;22.10;94.40;;;;;;5051375;28;20054;-90
2021/06/27 01:09:30;;;;;;;3.08;2.70;;;22.10;94.10;;;;;;5050950;28;20044;-90
2021/06/27 01:11:58;;;;;;;3.55;2.47;;;22.10;94.10;;;;;;5051680;28;20033;-89
2021/06/27 01:14:23;;;;;;;6.20;3.28;;;22.10;93.80;;;;;;5052206;28;20451;-89
2021/06/27 01:16:50;;;;;;;3.92;2.88;;;22.20;93.90;;;;;;5051818;28;20152;-89
2021/06/27 01:19:16;;;;;;;2.67;2.47;;;22.20;93.80;;;;;;5055648;28;20056;-89
2021/06/27 01:21:43;;;;;;;2.67;2.47;;;22.20;93.70;;;;;;5057759;28;20490;-89
2021/06/27 01:24:09;;;;;;;3.03;2.63;;;22.20;93.40;;;;;;5051738;28;20060;-89
2021/06/27 01:26:35;;;;;;;3.72;2.78;;;22.30;93.00;;;;;;5051054;28;20046;-90
2021/06/27 01:29:01;;;;;;;3.00;2.67;;;22.30;92.60;;;;;;5035507;28;20030;-90
2021/06/27 01:31:27;;;;;;;2.63;2.35;;;22.40;92.20;;;;;;5036526;28;20033;-90
2021/06/27 01:33:55;;;;;;;3.92;2.40;;;22.40;92.00;;;;;;5052653;28;20129;-90
2021/06/27 01:36:22;;;;;;;3.03;2.72;;;22.50;91.70;;;;;;5053651;28;20061;-90
2021/06/27 01:38:48;;;;;;;3.20;2.90;;;22.50;91.30;;;;;;5051490;28;20029;-90
2021/06/27 01:41:14;;;;;;;3.17;2.88;;;22.60;91.10;;;;;;5051284;28;20179;-90
2021/06/27 01:43:39;;;;;;;3.53;2.72;;;22.60;91.00;;;;;;5034881;28;20112;-90
2021/06/27 01:46:05;;;;;;;2.90;2.60;;;22.60;90.80;;;;;;5033205;28;20045;-90
2021/06/27 01:48:33;;;;;;;2.70;2.50;;;22.70;90.70;;;;;;5049058;28;20395;-90
2021/06/27 01:51:00;;;;;;;3.72;2.33;;;22.70;90.50;;;;;;5049804;28;20044;-90
2021/06/27 01:53:32;;;;;;;2.67;2.47;;;22.70;90.40;;;;;;5049734;28;20029;-90
2021/06/27 01:56:05;;;;;;;2.50;2.30;;;22.70;90.30;;;;;;5034416;28;20041;-90
2021/06/27 01:58:35;;;;;;;4.70;2.70;;;22.60;90.20;;;;;;5049648;28;20486;-90
2021/06/27 02:01:01;;;;;;;3.00;2.70;;;22.60;90.30;;;;;;5049581;28;20037;-90
2021/06/27 02:03:27;;;;;;;2.80;2.60;;;22.60;90.50;;;;;;5032891;28;20033;-90
2021/06/27 02:05:52;;;;;;;3.20;2.70;;;22.60;90.60;;;;;;5049340;28;20041;-90
2021/06/27 02:08:18;;;;;;;3.03;2.50;;;22.60;90.70;;;;;;5049628;28;20040;-90
2021/06/27 02:10:44;;;;;;;7.88;2.53;;;22.60;90.80;;;;;;5049411;28;20041;-90
2021/06/27 02:13:10;;;;;;;2.95;2.65;;;22.60;90.70;;;;;;5049328;28;20479;-90
2021/06/27 02:15:36;;;;;;;3.10;2.80;;;22.60;90.80;;;;;;5049268;28;20033;-90
2021/06/27 02:18:27;;;;;;;3.10;2.80;;;22.60;90.90;;;;;;5049849;28;20029;-90
2021/06/27 02:20:54;;;;;;;3.65;2.70;;;22.60;90.70;;;;;;5033798;28;20148;-90
2021/06/27 02:23:20;;;;;;;3.28;2.58;;;22.60;90.80;;;;;;5049290;28;20029;-90
2021/06/27 02:25:46;;;;;;;4.35;2.78;;;22.60;90.90;;;;;;5049615;28;20052;-90
2021/06/27 02:28:12;;;;;;;3.33;2.75;;;22.60;90.80;;;;;;5049665;28;20033;-91
2021/06/27 02:30:38;;;;;;;2.92;2.72;;;22.60;90.80;;;;;;5049314;28;20065;-91
2021/06/27 02:33:05;;;;;;;5.50;2.60;;;22.60;90.80;;;;;;5049132;28;20474;-90
2021/06/27 02:35:31;;;;;;;2.97;2.67;;;22.70;90.70;;;;;;5048859;28;20557;-90
2021/06/27 02:37:57;;;;;;;2.63;2.42;;;22.80;90.70;;;;;;5048911;28;20029;-90
2021/06/27 02:40:23;;;;;;;2.70;2.50;;;22.80;90.60;;;;;;5034039;28;20179;-90
2021/06/27 02:42:48;;;;;;;2.58;2.38;;;22.90;90.40;;;;;;5033497;28;20025;-90
2021/06/27 02:45:14;;;;;;;3.00;2.70;;;22.90;90.20;;;;;;5049002;28;20372;-90
2021/06/27 02:47:41;;;;;;;2.85;2.60;;;23.00;90.00;;;;;;5048732;28;20045;-90
2021/06/27 02:50:10;;;;;;;2.60;2.40;;;23.00;89.90;;;;;;5049065;28;20040;-90
2021/06/27 02:52:36;;;;;;;3.13;2.72;;;23.00;90.00;;;;;;5033491;28;20034;-90
2021/06/27 02:55:03;;;;;;;3.95;2.65;;;23.00;90.00;;;;;;5048986;28;20037;-90
2021/06/27 02:57:29;;;;;;;2.83;2.40;;;23.10;89.70;;;;;;5050553;28;20048;-90
2021/06/27 02:59:55;;;;;;;4.10;3.13;;;23.10;89.70;;;;;;5054327;28;20037;-91
2021/06/27 03:02:24;;;;;;;3.15;2.95;;;23.10;89.60;;;;;;5055389;28;20036;-91
2021/06/27 03:04:49;;;;;;;3.22;2.90;;;23.10;90.00;;;;;;5055613;28;20034;-90
2021/06/27 03:07:15;;;;;;;3.47;2.83;;;23.10;89.70;;;;;;5055648;28;20045;-90
2021/06/27 03:09:41;;;;;;;3.33;2.88;;;23.20;89.50;;;;;;5056291;28;20036;-89
2021/06/27 03:12:07;;;;;;;3.97;2.95;;;23.30;89.10;;;;;;5055979;28;20065;-89
2021/06/27 03:14:33;;;;;;;3.58;3.22;;;23.30;88.80;;;;;;5053323;28;20067;-90
2021/06/27 03:16:58;;;;;;;3.15;2.92;;;23.40;88.50;;;;;;5037753;28;20056;-90
2021/06/27 03:19:24;;;;;;;3.10;2.78;;;23.40;88.50;;;;;;5054184;28;20036;-88
2021/06/27 03:21:50;;;;;;;3.97;2.88;;;23.40;88.60;;;;;;5053975;28;20041;-88
2021/06/27 03:24:15;;;;;;;4.03;3.63;;;23.40;88.20;;;;;;5053503;28;20037;-87
2021/06/27 03:26:42;;;;;;;3.15;2.90;;;23.50;87.70;;;;;;5038350;28;20045;-88
2021/06/27 03:29:08;;;;;;;4.57;3.50;;;23.50;87.90;;;;;;5054048;28;20406;-87
2021/06/27 03:31:33;;;;;;;3.28;3.00;;;23.50;87.70;;;;;;5054123;28;20041;-87
2021/06/27 03:33:59;;;;;;;3.65;3.28;;;23.50;87.80;;;;;;5060166;28;20017;-87
2021/06/27 03:36:25;;;;;;;3.67;3.30;;;23.60;87.50;;;;;;5079741;28;20032;-87
2021/06/27 03:39:05;;;;;;;3.80;3.50;;;23.60;87.50;;;;;;5060027;28;20052;-87
2021/06/27 03:41:36;;;;;;;3.63;3.20;;;23.70;87.30;;;;;;5054122;28;20127;-87
2021/06/27 03:44:05;;;;;;;3.97;3.30;;;23.80;86.90;;;;;;5054218;28;20434;-88
2021/06/27 03:46:31;;;;;;;3.75;3.38;;;23.80;86.50;;;;;;5054223;28;20041;-87
2021/06/27 03:48:57;;;;;;;4.75;3.30;;;23.80;86.70;;;;;;5054605;28;20037;-87
2021/06/27 03:51:23;;;;;;;5.28;3.50;;;23.80;86.50;;;;;;5038230;28;20034;-87
2021/06/27 03:53:49;;;;;;;5.22;3.45;;;23.90;86.50;;;;;;5053651;28;20394;-88
2021/06/27 03:56:17;;;;;;;3.85;3.55;;;23.90;86.10;;;;;;5055006;28;20099;-87
2021/06/27 03:58:43;;;;;;;5.72;3.90;;;23.80;86.00;;;;;;5037558;28;20040;-87
2021/06/27 04:01:08;;;;;;;4.07;3.45;;;23.90;86.30;;;;;;5037306;28;20079;-87
2021/06/27 04:03:34;;;;;;;3.95;3.60;;;24.00;85.80;;;;;;5041348;28;20038;-87
2021/06/27 04:06:00;;;;;;;3.78;3.40;;;24.10;85.20;;;;;;5053975;28;20050;-88
2021/06/27 04:08:25;;;;;;;3.53;3.22;;;24.30;84.40;;;;;;5053493;28;20042;-88
2021/06/27 04:10:56;;;;;;;4.25;3.50;;;24.50;83.20;;;;;;5050747;28;20033;-90
2021/06/27 04:13:22;;;;;;;4.57;3.65;;;24.70;82.20;;;;;;5051346;28;20163;-91
2021/06/27 04:15:48;;;;;;;3.95;3.33;;;24.70;81.80;;;;;;5052066;28;20049;-90
2021/06/27 04:18:14;;;;;;;4.40;3.28;;;24.90;81.30;;;;;;5051497;28;20029;-90
2021/06/27 04:20:40;;;;;;;4.80;3.42;;;25.20;80.60;;;;;;5051443;28;20564;-90
2021/06/27 04:23:06;;;;;;;3.55;3.25;;;25.30;79.80;;;;;;5051396;28;20446;-90
2021/06/27 04:25:33;;;;;;;3.85;3.45;;;25.40;79.00;;;;;;5036574;28;20043;-91
2021/06/27 04:27:59;;;;;;;4.13;3.70;;;25.50;78.50;;;;;;5051238;28;20046;-90
2021/06/27 04:30:25;;;;;;;3.50;3.20;;;25.60;78.10;;;;;;5036436;28;20045;-91
2021/06/27 04:32:50;;;;;;;3.92;3.50;;;25.70;77.90;;;;;;5051233;28;20064;-90
2021/06/27 04:35:16;;;;;;;4.93;3.30;;;25.70;77.60;;;;;;5051600;28;20041;-90
2021/06/27 04:37:42;;;;;;;4.20;3.80;;;25.80;77.20;;;;;;5051267;28;20397;-90
2021/06/27 04:40:08;;;;;;;6.22;3.90;;;25.90;76.90;;;;;;5051190;28;20439;-91
2021/06/27 04:42:34;;;;;;;3.80;3.50;;;26.00;76.60;;;;;;5051109;28;20441;-90
2021/06/27 04:45:00;;;;;;;4.68;3.88;;;26.10;76.50;;;;;;5051494;28;20038;-90
2021/06/27 04:47:26;;;;;;;4.15;3.75;;;26.10;76.10;;;;;;5050980;28;20071;-90
2021/06/27 04:49:52;;;;;;;4.97;4.00;;;26.10;75.50;;;;;;5034664;28;20060;-91
2021/06/27 04:52:18;;;;;;;4.32;3.90;;;26.20;75.50;;;;;;5050972;28;20491;-90
2021/06/27 04:54:43;;;;;;;5.28;3.70;;;26.40;75.50;;;;;;5050883;28;20045;-90
2021/06/27 04:57:09;;;;;;;5.30;4.40;;;26.50;75.20;;;;;;5052334;28;20109;-90
2021/06/27 04:59:35;;;;;;;8.60;4.57;;;26.60;75.00;;;;;;5051354;28;20490;-90
2021/06/27 05:02:01;;;;;;;6.55;4.07;;;26.70;74.80;;;;;;5051403;28;20036;-91
2021/06/27 05:04:26;;;;;;;6.25;3.95;;;26.80;74.50;;;;;;5035448;28;20049;-91
2021/06/27 05:06:52;;;;;;;4.30;3.88;;;27.00;74.20;;;;;;5050809;28;20442;-91
2021/06/27 05:09:18;;;;;;;4.40;3.50;;;27.10;73.20;;;;;;5054943;28;20041;-90
2021/06/27 05:11:43;;;;;;;3.40;3.10;;;27.30;72.80;;;;;;5054825;28;20087;-90
2021/06/27 05:14:09;;;;;;;3.40;3.10;;;27.60;71.90;;;;;;5051327;28;20048;-91
2021/06/27 05:16:35;;;;;;;3.15;2.85;;;27.80;71.20;;;;;;5035852;28;20038;-91
2021/06/27 05:19:00;;;;;;;5.07;3.17;;;27.80;70.00;;;;;;5050575;28;20045;-91
2021/06/27 05:21:26;;;;;;;3.80;2.80;;;27.70;69.60;;;;;;5050835;28;20053;-91
2021/06/27 05:23:52;;;;;;;4.05;3.20;;;27.50;69.80;;;;;;5049945;28;20479;-89
2021/06/27 05:26:18;;;;;;;3.38;3.17;;;27.40;69.80;;;;;;5050857;28;20045;-90
2021/06/27 05:28:43;;;;;;;5.03;3.20;;;27.30;70.20;;;;;;5050542;28;20065;-90
2021/06/27 05:31:09;;;;;;;3.50;3.20;;;27.20;70.00;;;;;;5050336;28;20083;-91
2021/06/27 05:33:34;;;;;;;4.60;3.30;;;27.20;70.30;;;;;;5050572;28;20068;-91
2021/06/27 05:36:00;;;;;;;3.97;3.30;;;27.30;70.50;;;;;;5050071;28;20030;-91
2021/06/27 05:38:26;;;;;;;3.53;3.22;;;27.40;71.00;;;;;;5050364;28;20033;-91
2021/06/27 05:40:53;;;;;;;3.35;3.05;;;27.50;70.00;;;;;;5050264;28;20063;-91
2021/06/27 05:43:19;;;;;;;3.67;3.38;;;27.50;69.60;;;;;;5033596;28;20111;-91
2021/06/27 05:45:44;;;;;;;5.03;3.25;;;27.40;69.80;;;;;;5050027;28;20084;-90
2021/06/27 05:48:10;;;;;;;3.60;3.30;;;27.50;70.10;;;;;;5050366;28;20049;-91
2021/06/27 05:50:36;;;;;;;4.05;3.60;;;27.60;70.20;;;;;;5050042;28;20442;-91
2021/06/27 05:53:02;;;;;;;4.50;3.20;;;27.70;69.60;;;;;;5050601;28;20026;-91
2021/06/27 05:55:28;;;;;;;5.57;3.40;;;27.60;69.30;;;;;;5050884;28;20099;-90
2021/06/27 05:57:54;;;;;;;4.22;3.10;;;27.50;69.50;;;;;;5051900;28;20124;-90
2021/06/27 06:00:20;;;;;;;4.15;3.47;;;27.50;70.00;;;;;;5050237;28;20041;-90
2021/06/27 06:02:46;;;;;;;3.45;3.15;;;27.60;69.60;;;;;;5050669;28;20029;-90
2021/06/27 06:05:12;;;;;;;4.13;3.50;;;27.60;69.30;;;;;;5050489;28;20064;-90
2021/06/27 06:07:37;;;;;;;3.20;3.00;;;27.50;69.20;;;;;;5050618;28;20096;-90
2021/06/27 06:10:05;;;;;;;9.32;3.20;;;27.40;69.40;;;;;;5049911;28;20550;-90
2021/06/27 06:12:30;;;;;;;2.97;2.78;;;27.30;69.70;;;;;;5034173;28;20104;-90
2021/06/27 06:14:56;;;;;;;3.97;3.17;;;27.20;70.10;;;;;;5035434;28;20037;-88
2021/06/27 06:17:22;;;;;;;3.60;3.30;;;27.10;70.30;;;;;;5034478;28;20486;-89
2021/06/27 06:19:51;;;;;;;6.53;3.55;;;27.00;70.60;;;;;;5050845;28;20038;-91
2021/06/27 06:22:19;;;;;;;4.30;3.90;;;26.90;71.00;;;;;;5049373;28;20057;-90
2021/06/27 06:24:45;;;;;;;4.07;3.63;;;26.80;71.10;;;;;;5049376;28;20052;-90
2021/06/27 06:27:11;;;;;;;3.15;2.95;;;26.60;71.40;;;;;;5049262;28;20046;-91
2021/06/27 06:29:36;;;;;;;3.92;3.50;;;26.50;71.80;;;;;;5032888;28;20395;-90
2021/06/27 06:32:02;;;;;;;4.88;3.15;;;26.40;72.10;;;;;;5049245;28;20033;-90
2021/06/27 06:34:28;;;;;;;4.85;3.72;;;26.40;72.30;;;;;;5049048;28;20045;-90
2021/06/27 06:36:54;;;;;;;3.78;3.47;;;26.40;72.50;;;;;;5049187;28;20030;-90
2021/06/27 06:39:22;;;;;;;4.57;3.70;;;26.30;72.70;;;;;;5034711;28;20073;-90
2021/06/27 06:41:50;;;;;;;3.97;3.60;;;26.30;73.20;;;;;;5049831;28;20029;-91
2021/06/27 06:44:16;;;;;;;4.70;3.75;;;26.20;73.40;;;;;;5049136;28;20049;-91
2021/06/27 06:46:42;;;;;;;3.63;3.33;;;26.20;73.50;;;;;;5049037;28;20041;-91
2021/06/27 06:49:08;;;;;;;5.57;3.30;;;26.20;73.60;;;;;;5049244;28;20367;-90
2021/06/27 06:51:34;;;;;;;6.13;4.00;;;26.20;73.70;;;;;;5048972;28;20045;-90
2021/06/27 06:54:00;;;;;;;4.07;3.25;;;26.10;73.70;;;;;;5049304;28;20034;-90
2021/06/27 06:56:25;;;;;;;3.50;3.20;;;26.10;74.10;;;;;;5052159;28;20033;-91
2021/06/27 06:58:52;;;;;;;4.80;4.03;;;26.10;74.40;;;;;;5049199;28;20494;-91
2021/06/27 07:01:20;;;;;;;5.32;4.28;;;26.00;74.50;;;;;;5048927;28;20107;-91
2021/06/27 07:03:46;;;;;;;4.35;3.70;;;25.90;74.70;;;;;;5049365;28;20180;-90
2021/06/27 07:06:13;;;;;;;4.30;3.90;;;25.80;75.00;;;;;;5049770;28;20061;-91
2021/06/27 07:08:39;;;;;;;4.10;3.80;;;25.80;75.60;;;;;;5050097;28;20045;-91
2021/06/27 07:11:05;;;;;;;5.38;4.38;;;25.80;75.90;;;;;;5048826;28;20029;-91
2021/06/27 07:13:31;;;;;;;4.32;3.92;;;25.80;76.10;;;;;;5048601;28;20548;-91
2021/06/27 07:15:57;;;;;;;4.25;3.95;;;25.70;76.60;;;;;;5032453;28;20033;-91
2021/06/27 07:18:22;;;;;;;4.28;3.88;;;25.70;77.10;;;;;;5051781;28;20054;-93
2021/06/27 07:20:49;;;;;;;4.40;4.00;;;25.60;77.50;;;;;;5050223;28;20060;-90
2021/06/27 07:23:16;;;;;;;5.07;4.22;;;25.60;77.80;;;;;;5048731;28;20072;-90
2021/06/27 07:25:41;;;;;;;4.50;4.07;;;25.60;78.20;;;;;;5048619;28;20083;-90
2021/06/27 07:28:07;;;;;;;4.40;4.00;;;25.50;78.50;;;;;;5048439;28;20053;-90
2021/06/27 07:30:33;;;;;;;5.68;3.97;;;25.60;78.70;;;;;;5048812;28;20502;-91
2021/06/27 07:32:58;;;;;;;5.38;4.40;;;25.60;78.80;;;;;;5049023;28;20037;-90
2021/06/27 07:35:24;;;;;;;5.13;4.50;;;25.70;78.90;;;;;;5034429;28;20571;-90
2021/06/27 07:37:50;;;;;;;5.43;4.47;;;25.80;78.90;;;;;;5048915;28;20038;-90
2021/06/27 07:40:16;;;;;;;4.78;4.20;;;25.80;78.50;;;;;;5049332;28;20041;-91
2021/06/27 07:42:42;;;;;;;4.88;4.40;;;25.90;78.50;;;;;;5050782;28;20491;-91
2021/06/27 07:45:08;;;;;;;7.10;4.85;;;25.90;78.30;;;;;;5049215;28;20045;-91
2021/06/27 07:47:39;;;;;;;5.10;4.60;;;25.90;78.30;;;;;;5052260;28;20517;-92
2021/06/27 07:50:05;;;;;;;8.35;4.45;;;26.00;78.40;;;;;;5052999;28;20133;-91
2021/06/27 07:52:33;;;;;;;7.38;4.70;;;26.10;78.50;;;;;;5053455;28;20486;-92
2021/06/27 07:54:59;;;;;;;4.82;4.32;;;26.20;78.30;;;;;;5053190;28;20052;-93
2021/06/27 07:57:24;;;;;;;4.80;4.40;;;26.30;78.10;;;;;;5053810;28;20037;-90
2021/06/27 07:59:50;;;;;;;5.13;4.63;;;26.50;78.40;;;;;;5052416;28;20433;-92
2021/06/27 08:02:16;;;;;;;4.75;4.32;;;26.80;77.90;;;;;;5053081;28;20025;-90
2021/06/27 08:04:42;;;;;;;5.75;5.15;;;27.00;77.10;;;;;;5053212;28;20041;-91
2021/06/27 08:07:07;;;;;;;5.65;4.93;;;27.10;76.10;;;;;;5052659;28;20076;-91
2021/06/27 08:09:33;;;;;;;5.07;4.57;;;27.20;75.70;;;;;;5052823;28;20067;-91
2021/06/27 08:11:59;;;;;;;4.85;4.35;;;27.40;75.40;;;;;;5035863;28;20118;-91
2021/06/27 08:14:25;;;;;;;5.35;4.65;;;27.50;74.90;;;;;;5053807;28;20516;-90
2021/06/27 08:16:50;;;;;;;5.50;4.22;;;27.50;74.30;;;;;;5052541;28;20453;-92
2021/06/27 08:19:16;;;;;;;4.75;4.25;;;27.60;73.90;;;;;;5036655;28;20042;-90
2021/06/27 08:21:42;;;;;;;6.03;4.63;;;27.70;74.10;;;;;;5051421;28;20399;-90
2021/06/27 08:24:07;;;;;;;7.13;4.40;;;27.90;73.70;;;;;;5051608;28;20081;-91
2021/06/27 08:26:33;;;;;;;4.85;4.13;;;28.20;73.20;;;;;;5035204;28;20057;-90
2021/06/27 08:28:59;;;;;;;4.47;3.80;;;28.60;73.10;;;;;;5035429;28;20038;-91
2021/06/27 08:31:26;;;;;;;4.75;4.30;;;28.90;72.20;;;;;;5051946;28;20025;-91
2021/06/27 08:33:52;;;;;;;4.30;4.00;;;29.30;71.30;;;;;;5052132;28;20037;-90
2021/06/27 08:36:18;;;;;;;4.10;3.60;;;29.70;71.20;;;;;;5051543;28;20084;-90
2021/06/27 08:38:44;;;;;;;5.13;4.00;;;30.50;71.10;;;;;;5052277;28;20038;-92
2021/06/27 08:41:14;;;;;;;4.32;3.53;;;31.10;68.80;;;;;;5056205;28;20056;-91
2021/06/27 08:43:41;;;;;;;4.50;4.10;;;31.40;67.40;;;;;;5053153;28;20038;-91
2021/06/27 08:46:07;;;;;;;4.57;3.97;;;31.50;66.40;;;;;;5052593;28;20044;-92
2021/06/27 08:48:38;;;;;;;3.85;3.55;;;31.30;65.60;;;;;;5051456;28;20045;-91
2021/06/27 08:51:05;;;;;;;3.28;3.03;;;31.10;65.30;;;;;;5034361;28;20065;-92
2021/06/27 08:53:35;;;;;;;3.85;3.55;;;30.90;65.60;;;;;;5051614;28;20038;-91
2021/06/27 08:56:06;;;;;;;4.18;3.42;;;30.90;65.30;;;;;;5035807;28;20103;-90
2021/06/27 08:58:33;;;;;;;3.97;3.63;;;30.70;65.20;;;;;;5052622;28;20046;-91
2021/06/27 09:01:00;;;;;;;4.13;3.72;;;30.70;65.30;;;;;;5051039;28;20034;-91
2021/06/27 09:03:26;;;;;;;4.10;3.70;;;30.70;65.30;;;;;;5050977;28;20175;-91
2021/06/27 09:05:52;;;;;;;4.22;3.85;;;31.10;65.80;;;;;;5035157;28;20037;-90
2021/06/27 09:08:19;;;;;;;3.97;3.67;;;32.10;66.00;;;;;;5051832;28;20037;-92
2021/06/27 09:10:47;;;;;;;3.92;3.30;;;33.20;64.20;;;;;;5054056;28;20038;-93
2021/06/27 09:13:14;;;;;;;3.35;3.13;;;34.20;61.90;;;;;;5052147;28;20037;-93
2021/06/27 09:15:49;;;;;;;4.95;3.53;;;35.00;60.80;;;;;;5036611;28;20034;-92
2021/06/27 09:18:15;;;;;;;3.90;3.17;;;36.00;59.20;;;;;;5036489;28;20033;-93
2021/06/27 09:20:44;;;;;;;4.45;2.90;;;36.90;58.20;;;;;;5052024;28;20041;-92
2021/06/27 09:23:12;;;;;;;3.47;3.13;;;37.60;57.00;;;;;;5035991;28;20033;-92
2021/06/27 09:25:38;;;;;;;3.30;3.00;;;38.30;55.20;;;;;;5051716;28;20053;-91
2021/06/27 09:28:07;;;;;;;3.88;2.85;;;38.40;53.80;;;;;;5052024;28;20041;-91
2021/06/27 09:30:40;;;;;;;4.45;3.10;;;38.10;53.30;;;;;;5050567;28;20057;-91
2021/06/27 09:33:10;;;;;;;3.35;3.05;;;37.70;52.90;;;;;;5034713;28;20033;-92
2021/06/27 09:35:42;;;;;;;3.20;3.00;;;37.20;53.20;;;;;;5053395;28;20030;-91
2021/06/27 09:38:26;;;;;;;5.63;3.00;;;36.70;53.60;;;;;;5053201;28;20033;-91
2021/06/27 09:40:54;;;;;;;3.88;3.45;;;36.10;53.80;;;;;;5050209;28;20193;-92
2021/06/27 09:43:21;;;;;;;5.82;3.42;;;35.90;54.50;;;;;;5050328;28;20485;-90
2021/06/27 09:45:56;;;;;;;7.47;3.85;;;36.20;55.20;;;;;;5050890;28;20425;-92
2021/06/27 09:48:26;;;;;;;3.63;3.33;;;37.00;54.10;;;;;;5034894;28;20057;-92
2021/06/27 09:50:53;;;;;;;6.88;3.35;;;37.70;53.60;;;;;;5050909;28;20052;-91
2021/06/27 09:53:41;;;;;;;3.47;3.20;;;38.40;52.30;;;;;;5050024;28;20509;-91
2021/06/27 09:56:09;;;;;;;3.70;3.40;;;38.50;50.90;;;;;;5034954;28;20026;-92
2021/06/27 09:58:35;;;;;;;5.43;3.15;;;38.40;50.70;;;;;;5053821;28;20053;-92
2021/06/27 10:01:02;;;;;;;3.70;3.38;;;37.90;50.70;;;;;;5051147;28;20044;-92
2021/06/27 10:03:41;;;;;;;4.28;3.22;;;37.30;51.30;;;;;;5050365;28;20048;-91
2021/06/27 10:06:08;;;;;;;3.00;2.80;;;36.80;51.80;;;;;;5034499;28;20029;-91
2021/06/27 10:08:34;;;;;;;3.15;2.95;;;36.10;52.40;;;;;;5049944;28;20410;-91
2021/06/27 10:11:15;;;;;;;3.30;2.90;;;35.70;53.10;;;;;;5072206;28;20013;-91
2021/06/27 10:13:43;;;;;;;3.65;3.35;;;35.40;53.50;;;;;;5063665;28;20037;-91
2021/06/27 10:16:15;;;;;;;4.45;3.20;;;35.00;53.90;;;;;;5050700;28;20033;-91
2021/06/27 10:18:42;;;;;;;3.70;3.40;;;34.60;54.40;;;;;;5049943;28;20037;-92
2021/06/27 10:21:09;;;;;;;6.50;3.60;;;34.20;54.80;;;;;;5053592;28;20065;-92
2021/06/27 10:23:35;;;;;;;4.10;3.70;;;33.90;55.40;;;;;;5051103;28;20064;-91
2021/06/27 10:26:01;;;;;;;4.18;3.50;;;33.70;56.10;;;;;;5049831;28;20506;-91
2021/06/27 10:28:28;;;;;;;4.22;3.83;;;33.80;56.40;;;;;;5035572;28;20069;-91
2021/06/27 10:30:54;;;;;;;4.07;3.60;;;33.90;56.10;;;;;;5034218;28;20037;-91
2021/06/27 10:33:22;;;;;;;8.15;3.25;;;33.90;56.10;;;;;;5049738;28;20041;-92
2021/06/27 10:35:50;;;;;;;4.55;3.70;;;33.70;56.30;;;;;;5049453;28;20049;-91
2021/06/27 10:38:19;;;;;;;4.60;3.35;;;33.50;56.30;;;;;;5033757;28;20088;-91
2021/06/27 10:40:56;;;;;;;4.40;3.75;;;33.30;56.80;;;;;;5052709;28;20033;-91
2021/06/27 10:43:23;;;;;;;4.18;3.67;;;33.40;57.30;;;;;;5056786;28;20045;-90
2021/06/27 10:45:49;;;;;;;4.82;3.58;;;33.40;57.10;;;;;;5055235;28;20037;-91
2021/06/27 10:48:33;;;;;;;4.28;3.95;;;33.50;57.30;;;;;;5049335;28;20045;-91
2021/06/27 10:51:05;;;;;;;4.80;4.30;;;33.60;57.10;;;;;;5048794;28;20084;-91
2021/06/27 10:54:09;;;;;;;4.97;4.22;;;33.50;56.90;;;;;;5049046;28;20052;-91
2021/06/27 10:56:52;;;;;;;4.25;3.85;;;33.60;56.80;;;;;;5049391;28;20068;-92
2021/06/27 10:59:40;;;;;;;4.18;3.78;;;33.70;57.00;;;;;;5049484;28;20053;-91
2021/06/27 11:02:14;;;;;;;4.30;3.90;;;34.00;57.10;;;;;;5049388;28;20116;-92
2021/06/27 11:04:40;;;;;;;5.20;3.90;;;34.60;57.10;;;;;;5051349;28;20509;-91
2021/06/27 11:07:06;;;;;;;5.03;3.65;;;35.20;56.10;;;;;;5049231;28;20042;-92
2021/06/27 11:09:31;;;;;;;3.50;3.20;;;35.70;55.40;;;;;;5050315;28;20033;-91
2021/06/27 11:11:58;;;;;;;3.95;3.60;;;36.20;54.80;;;;;;5049455;28;20037;-91
2021/06/27 11:14:25;;;;;;;3.88;3.47;;;36.80;54.20;;;;;;5049543;28;20033;-91
2021/06/27 11:17:02;;;;;;;3.33;3.08;;;37.40;53.20;;;;;;5035391;28;20041;-90
2021/06/27 11:19:40;;;;;;;3.53;3.22;;;37.80;52.50;;;;;;5050329;28;20083;-92
2021/06/27 11:22:12;;;;;;;3.28;2.80;;;38.30;52.10;;;;;;5053742;28;20421;-92
2021/06/27 11:24:38;;;;;;;2.80;2.60;;;38.90;52.00;;;;;;5053485;28;20080;-91
2021/06/27 11:27:04;;;;;;;4.50;2.75;;;39.00;50.60;;;;;;5052808;28;20068;-92
2021/06/27 11:29:30;;;;;;;3.38;3.08;;;39.10;50.50;;;;;;5052802;28;20439;-92
2021/06/27 11:32:08;;;;;;;3.40;3.10;;;38.90;50.00;;;;;;5053055;28;20076;-92
2021/06/27 11:34:36;;;;;;;3.25;2.95;;;38.70;49.40;;;;;;5053204;28;20034;-91
2021/06/27 11:37:17;;;;;;;3.20;2.80;;;38.40;50.40;;;;;;5052931;28;20041;-91
2021/06/27 11:39:43;;;;;;;4.63;3.20;;;37.90;50.20;;;;;;5052696;28;20037;-92
2021/06/27 11:42:27;;;;;;;4.75;3.30;;;37.30;50.60;;;;;;5053295;28;20163;-92
2021/06/27 11:45:08;;;;;;;3.22;2.92;;;36.40;50.80;;;;;;5054435;28;20443;-91
2021/06/27 11:47:55;;;;;;;8.98;3.47;;;35.40;51.90;;;;;;5052477;28;20080;-91
2021/06/27 11:50:24;;;;;;;3.45;2.97;;;34.50;53.30;;;;;;5036501;28;20038;-91
2021/06/27 11:52:52;;;;;;;4.28;3.40;;;33.70;54.30;;;;;;5053074;28;20430;-91
2021/06/27 11:55:23;;;;;;;4.10;3.40;;;33.10;55.30;;;;;;5052749;28;20418;-90
2021/06/27 11:57:48;;;;;;;4.25;3.55;;;32.60;56.30;;;;;;5037389;28;20092;-90
2021/06/27 12:00:15;;;;;;;6.90;3.72;;;32.10;56.80;;;;;;5037355;28;20042;-92
2021/06/27 12:02:40;;;;;;;4.25;3.25;;;31.80;57.50;;;;;;5052666;28;20449;-91
2021/06/27 12:05:13;;;;;;;3.92;3.25;;;31.40;58.10;;;;;;5052484;28;20061;-91
2021/06/27 12:07:44;;;;;;;4.70;3.90;;;31.20;58.80;;;;;;5051790;28;20498;-92
2021/06/27 12:10:22;;;;;;;5.03;3.70;;;31.00;59.20;;;;;;5052482;28;20038;-92
2021/06/27 12:13:04;;;;;;;4.70;4.00;;;30.80;59.90;;;;;;5052854;28;20037;-91
2021/06/27 12:15:37;;;;;;;4.38;3.97;;;30.60;60.20;;;;;;5051696;28;20434;-91
2021/06/27 12:18:08;;;;;;;4.13;3.50;;;30.50;60.50;;;;;;5051777;28;20069;-91
2021/06/27 12:20:48;;;;;;;4.20;3.67;;;30.50;60.40;;;;;;5053194;28;20433;-90
2021/06/27 12:23:38;;;;;;;4.10;3.72;;;30.40;60.50;;;;;;5052247;28;20130;-91
2021/06/27 12:26:09;;;;;;;4.75;3.72;;;30.40;61.60;;;;;;5051895;28;20043;-92
2021/06/27 12:28:41;;;;;;;4.30;3.90;;;30.50;61.20;;;;;;5051745;28;20049;-91
2021/06/27 12:31:17;;;;;;;4.25;3.85;;;30.70;61.70;;;;;;5053380;28;20030;-91
2021/06/27 12:33:45;;;;;;;3.72;3.30;;;31.00;61.40;;;;;;5053186;28;20037;-92
2021/06/27 12:36:15;;;;;;;3.47;3.15;;;31.40;60.80;;;;;;5051956;28;20050;-92
2021/06/27 12:38:48;;;;;;;4.00;3.70;;;31.70;60.20;;;;;;5052011;28;20042;-91
2021/06/27 12:41:20;;;;;;;4.38;3.38;;;31.90;59.70;;;;;;5036454;28;20475;-92
2021/06/27 12:43:55;;;;;;;3.50;3.20;;;32.10;59.50;;;;;;5034909;28;20540;-91
2021/06/27 12:46:38;;;;;;;3.88;3.45;;;32.80;59.80;;;;;;5035897;28;20041;-90
2021/06/27 12:49:04;;;;;;;3.35;2.97;;;34.00;58.40;;;;;;5051472;28;20045;-91
2021/06/27 12:51:35;;;;;;;3.88;3.42;;;35.30;57.40;;;;;;5069443;28;20025;-91